createdAt,value
2022-12-15T00:00:18.288Z,60.70
2022-12-15T00:03:03.868Z,60.70
2022-12-15T00:05:49.987Z,60.70
2022-12-15T00:08:36.896Z,60.70
2022-12-15T00:11:22.364Z,61.10
2022-12-15T00:14:08.362Z,61.30
2022-12-15T00:16:54.247Z,61.60
2022-12-15T00:19:39.723Z,61.60
2022-12-15T00:22:25.720Z,62.60
2022-12-15T00:25:11.998Z,61.90
2022-12-15T00:27:57.820Z,62.20
2022-12-15T00:30:43.932Z,62.60
2022-12-15T00:33:30.950Z,62.70
2022-12-15T00:36:18.150Z,63.00
2022-12-15T00:38:46.385Z,63.20
2022-12-15T00:41:15.965Z,63.40
2022-12-15T00:43:43.859Z,63.50
2022-12-15T00:46:29.341Z,64.60
2022-12-15T00:48:56.649Z,64.00
2022-12-15T00:51:42.081Z,64.20
2022-12-15T00:54:27.715Z,64.40
2022-12-15T00:57:13.223Z,64.60
2022-12-15T00:59:59.281Z,64.60
2022-12-15T01:02:44.838Z,64.80
2022-12-15T01:05:30.573Z,64.50
2022-12-15T01:08:18.732Z,64.20
2022-12-15T01:11:09.407Z,63.90
2022-12-15T01:13:55.264Z,63.60
2022-12-15T01:16:40.963Z,63.60
2022-12-15T01:19:27.504Z,63.10
2022-12-15T01:21:54.463Z,62.80
2022-12-15T01:24:21.301Z,62.50
2022-12-15T01:26:48.254Z,62.30
2022-12-15T01:29:15.283Z,62.10
2022-12-15T01:31:43.526Z,62.00
2022-12-15T01:34:10.594Z,61.90
2022-12-15T01:36:37.598Z,62.60
2022-12-15T01:39:04.529Z,61.70
2022-12-15T01:41:31.515Z,61.50
2022-12-15T01:44:33.954Z,61.20
2022-12-15T01:47:00.975Z,60.90
2022-12-15T01:49:30.923Z,61.00
2022-12-15T01:52:03.702Z,61.10
2022-12-15T01:54:34.781Z,61.00
2022-12-15T01:57:07.694Z,61.10
2022-12-15T01:59:38.952Z,61.10
2022-12-15T02:02:06.222Z,61.10
2022-12-15T02:04:34.269Z,61.10
2022-12-15T02:07:01.249Z,61.20
2022-12-15T02:09:29.133Z,61.20
2022-12-15T02:12:07.878Z,61.10
2022-12-15T02:14:45.905Z,61.20
2022-12-15T02:17:17.749Z,61.10
2022-12-15T02:20:16.132Z,61.00
2022-12-15T02:22:55.286Z,60.90
2022-12-15T02:26:00.265Z,60.90
2022-12-15T02:28:30.228Z,60.80
2022-12-15T02:31:21.960Z,60.80
2022-12-15T02:34:00.222Z,61.10
2022-12-15T02:36:37.590Z,61.60
2022-12-15T02:39:06.050Z,62.20
2022-12-15T02:41:45.817Z,62.50
2022-12-15T02:44:15.522Z,62.70
2022-12-15T02:47:05.910Z,62.70
2022-12-15T02:49:42.319Z,63.10
2022-12-15T02:52:35.670Z,63.10
2022-12-15T02:55:14.046Z,63.30
2022-12-15T02:57:56.622Z,63.50
2022-12-15T03:00:24.391Z,63.50
2022-12-15T03:02:53.787Z,63.60
2022-12-15T03:05:22.746Z,63.70
2022-12-15T03:07:51.351Z,63.50
2022-12-15T03:10:20.480Z,63.20
2022-12-15T03:12:47.435Z,62.70
2022-12-15T03:15:15.182Z,62.60
2022-12-15T03:17:42.370Z,62.70
2022-12-15T03:20:10.757Z,62.90
2022-12-15T03:22:38.521Z,63.20
2022-12-15T03:25:05.957Z,63.20
2022-12-15T03:27:33.000Z,63.20
2022-12-15T03:30:00.093Z,63.20
2022-12-15T03:32:28.063Z,62.70
2022-12-15T03:34:55.270Z,62.30
2022-12-15T03:37:22.244Z,62.00
2022-12-15T03:39:49.762Z,61.70
2022-12-15T03:42:36.635Z,61.30
2022-12-15T03:45:04.117Z,61.10
2022-12-15T03:47:31.027Z,61.70
2022-12-15T03:49:58.364Z,60.90
2022-12-15T03:52:25.533Z,60.90
2022-12-15T03:54:52.525Z,60.80
2022-12-15T03:57:19.405Z,60.60
2022-12-15T03:59:46.350Z,60.40
2022-12-15T04:02:13.393Z,60.30
2022-12-15T04:04:40.462Z,60.10
2022-12-15T04:07:07.458Z,60.10
2022-12-15T04:09:34.646Z,60.20
2022-12-15T04:12:03.392Z,60.20
2022-12-15T04:14:30.649Z,60.30
2022-12-15T04:16:57.852Z,60.20
2022-12-15T04:19:46.916Z,60.30
2022-12-15T04:22:17.763Z,60.40
2022-12-15T04:25:03.659Z,60.60
2022-12-15T04:27:49.083Z,60.70
2022-12-15T04:30:34.846Z,60.90
2022-12-15T04:33:20.735Z,61.00
2022-12-15T04:36:08.295Z,61.10
2022-12-15T04:38:54.755Z,61.20
2022-12-15T04:41:41.298Z,61.30
2022-12-15T04:44:28.511Z,61.40
2022-12-15T04:47:14.524Z,61.50
2022-12-15T04:50:00.123Z,61.60
2022-12-15T04:52:47.022Z,61.90
2022-12-15T04:55:32.971Z,61.90
2022-12-15T04:58:27.251Z,61.80
2022-12-15T05:01:15.805Z,61.60
2022-12-15T05:04:01.937Z,61.50
2022-12-15T05:06:48.143Z,61.40
2022-12-15T05:09:33.677Z,61.40
2022-12-15T05:12:20.430Z,61.40
2022-12-15T05:15:06.805Z,61.20
2022-12-15T05:17:52.393Z,61.10
2022-12-15T05:20:38.066Z,60.90
2022-12-15T05:23:23.646Z,60.60
2022-12-15T05:26:09.231Z,60.60
2022-12-15T05:28:54.791Z,60.30
2022-12-15T05:31:40.214Z,60.40
2022-12-15T05:34:07.249Z,60.50
2022-12-15T05:36:34.862Z,61.20
2022-12-15T05:39:02.074Z,60.10
2022-12-15T05:41:29.194Z,59.90
2022-12-15T05:43:56.554Z,59.80
2022-12-15T05:46:24.037Z,59.70
2022-12-15T05:48:51.113Z,59.70
2022-12-15T05:51:18.245Z,59.70
2022-12-15T05:53:45.320Z,59.80
2022-12-15T05:56:14.571Z,59.80
2022-12-15T05:58:45.490Z,59.90
2022-12-15T06:01:18.665Z,60.00
2022-12-15T06:03:46.133Z,59.90
2022-12-15T06:06:13.955Z,59.80
2022-12-15T06:08:42.818Z,59.70
2022-12-15T06:11:14.863Z,59.70
2022-12-15T06:13:42.362Z,59.50
2022-12-15T06:16:23.366Z,59.40
2022-12-15T06:18:57.483Z,59.40
2022-12-15T06:21:27.349Z,59.40
2022-12-15T06:23:56.266Z,59.50
2022-12-15T06:26:26.022Z,59.40
2022-12-15T06:28:56.478Z,59.50
2022-12-15T06:31:25.661Z,59.70
2022-12-15T06:34:01.040Z,59.80
2022-12-15T06:36:31.289Z,60.20
2022-12-15T06:39:04.762Z,60.40
2022-12-15T06:41:32.587Z,60.50
2022-12-15T06:44:01.480Z,60.20
2022-12-15T06:46:30.944Z,60.00
2022-12-15T06:48:58.741Z,59.90
2022-12-15T06:51:26.585Z,59.70
2022-12-15T06:53:56.504Z,59.70
2022-12-15T06:56:34.456Z,59.80
2022-12-15T06:59:05.895Z,60.00
2022-12-15T07:01:33.529Z,59.80
2022-12-15T07:04:01.563Z,59.90
2022-12-15T07:06:34.623Z,60.30
2022-12-15T07:09:01.684Z,60.40
2022-12-15T07:11:28.833Z,60.20
2022-12-15T07:13:55.879Z,60.10
2022-12-15T07:16:23.463Z,60.00
2022-12-15T07:18:51.433Z,59.90
2022-12-15T07:21:19.707Z,59.90
2022-12-15T07:23:56.283Z,59.70
2022-12-15T07:26:24.780Z,59.50
2022-12-15T07:28:54.162Z,59.40
2022-12-15T07:31:21.884Z,59.40
2022-12-15T07:33:50.298Z,59.70
2022-12-15T07:36:18.498Z,59.90
2022-12-15T07:38:45.690Z,60.00
2022-12-15T07:41:20.201Z,60.20
2022-12-15T07:43:47.841Z,61.40
2022-12-15T07:46:15.836Z,60.80
2022-12-15T07:48:43.060Z,61.40
2022-12-15T07:51:18.709Z,61.80
2022-12-15T07:53:46.797Z,62.20
2022-12-15T07:56:14.001Z,62.70
2022-12-15T07:58:42.070Z,62.90
2022-12-15T08:01:12.727Z,63.20
2022-12-15T08:03:41.308Z,63.60
2022-12-15T08:06:11.773Z,64.00
2022-12-15T08:08:39.996Z,64.00
2022-12-15T08:11:09.479Z,63.90
2022-12-15T08:16:25.569Z,63.60
2022-12-15T08:18:52.815Z,63.50
2022-12-15T08:21:19.824Z,63.70
2022-12-15T08:23:46.922Z,64.20
2022-12-15T08:26:17.248Z,64.90
2022-12-15T08:28:44.738Z,65.90
2022-12-15T08:31:19.387Z,66.70
2022-12-15T08:33:47.262Z,66.90
2022-12-15T08:36:16.814Z,66.30
2022-12-15T08:38:45.605Z,64.90
2022-12-15T08:41:16.108Z,62.90
2022-12-15T08:43:48.446Z,60.90
2022-12-15T08:46:22.436Z,59.80
2022-12-15T08:48:50.232Z,58.90
2022-12-15T08:51:18.738Z,58.40
2022-12-15T08:53:46.683Z,58.20
2022-12-15T08:56:17.210Z,58.30
2022-12-15T08:58:46.429Z,58.70
2022-12-15T09:01:22.468Z,59.30
2022-12-15T09:03:52.013Z,60.00
2022-12-15T09:06:25.416Z,60.90
2022-12-15T09:08:57.709Z,61.20
2022-12-15T09:11:26.880Z,60.90
2022-12-15T09:13:54.624Z,60.40
2022-12-15T09:16:23.280Z,59.90
2022-12-15T09:18:53.666Z,58.70
2022-12-15T09:21:26.207Z,57.70
2022-12-15T09:23:55.333Z,56.60
2022-12-15T09:26:24.557Z,55.80
2022-12-15T09:28:54.733Z,55.60
2022-12-15T09:31:36.465Z,54.70
2022-12-15T09:34:03.884Z,53.50
2022-12-15T09:36:33.128Z,51.60
2022-12-15T09:39:02.090Z,50.80
2022-12-15T09:41:32.637Z,49.80
2022-12-15T09:44:17.896Z,49.10
2022-12-15T09:47:07.475Z,49.50
2022-12-15T09:49:58.770Z,48.10
2022-12-15T09:52:46.568Z,46.70
2022-12-15T09:55:23.656Z,45.40
2022-12-15T09:57:55.679Z,44.80
2022-12-15T10:00:44.427Z,44.30
2022-12-15T10:03:48.846Z,44.30
2022-12-15T10:06:28.330Z,44.60
2022-12-15T10:09:13.666Z,44.80
2022-12-15T10:12:02.015Z,44.90
2022-12-15T10:14:52.794Z,45.50
2022-12-15T10:17:40.215Z,45.10
2022-12-15T10:20:26.338Z,44.90
2022-12-15T10:22:54.809Z,45.00
2022-12-15T10:25:30.852Z,45.30
2022-12-15T10:28:17.184Z,45.10
2022-12-15T10:31:03.553Z,45.10
2022-12-15T10:36:16.085Z,44.60
2022-12-15T10:38:50.297Z,44.90
2022-12-15T10:41:20.854Z,44.90
2022-12-15T10:43:50.442Z,45.00
2022-12-15T10:46:20.255Z,44.70
2022-12-15T10:48:53.639Z,44.60
2022-12-15T10:51:20.690Z,44.90
2022-12-15T10:53:53.371Z,45.10
2022-12-15T10:59:33.227Z,45.50
2022-12-15T11:02:25.661Z,45.30
2022-12-15T11:04:59.344Z,45.20
2022-12-15T11:07:46.098Z,45.50
2022-12-15T11:10:49.941Z,45.30
2022-12-15T11:13:20.830Z,45.10
2022-12-15T11:15:56.730Z,44.70
2022-12-15T11:18:37.104Z,44.50
2022-12-15T11:21:36.923Z,44.00
2022-12-15T11:24:21.591Z,43.60
2022-12-15T11:26:57.768Z,43.10
2022-12-15T11:29:51.874Z,43.30
2022-12-15T11:32:26.704Z,43.10
2022-12-15T11:34:54.163Z,43.10
2022-12-15T11:37:30.778Z,42.70
2022-12-15T11:40:43.902Z,42.60
2022-12-15T11:43:37.296Z,42.50
2022-12-15T11:46:21.367Z,43.10
2022-12-15T11:49:03.845Z,43.30
2022-12-15T11:52:04.046Z,43.20
2022-12-15T11:54:50.381Z,43.50
2022-12-15T11:57:32.703Z,43.40
2022-12-15T12:00:22.477Z,43.70
2022-12-15T12:03:02.030Z,43.60
2022-12-15T12:05:48.619Z,43.30
2022-12-15T12:08:24.948Z,43.50
2022-12-15T12:11:04.357Z,43.60
2022-12-15T12:13:41.531Z,43.40
2022-12-15T12:16:42.301Z,44.10
2022-12-15T12:19:19.986Z,44.30
2022-12-15T12:21:54.843Z,44.70
2022-12-15T12:24:39.683Z,45.10
2022-12-15T12:27:28.833Z,45.60
2022-12-15T12:30:19.844Z,45.80
2022-12-15T12:33:02.997Z,46.20
2022-12-15T12:35:48.848Z,46.40
2022-12-15T12:38:20.336Z,46.80
2022-12-15T12:41:07.420Z,47.10
2022-12-15T12:46:42.027Z,47.80
2022-12-15T12:49:09.377Z,48.20
2022-12-15T12:51:40.180Z,48.30
2022-12-15T12:54:35.363Z,48.60
2022-12-15T12:57:13.052Z,48.80
2022-12-15T12:59:49.018Z,49.10
2022-12-15T13:02:24.830Z,49.20
2022-12-15T13:04:58.906Z,49.50
2022-12-15T13:07:41.053Z,49.70
2022-12-15T13:10:08.147Z,49.80
2022-12-15T13:12:51.667Z,50.10
2022-12-15T13:15:31.507Z,50.30
2022-12-15T13:18:13.142Z,51.10
2022-12-15T13:20:41.079Z,50.60
2022-12-15T13:23:36.833Z,50.70
2022-12-15T13:26:04.409Z,50.90
2022-12-15T13:28:40.490Z,51.10
2022-12-15T13:31:17.021Z,51.30
2022-12-15T13:33:50.400Z,51.40
2022-12-15T13:36:42.367Z,51.50
2022-12-15T13:39:12.480Z,51.70
2022-12-15T13:42:07.584Z,52.00
2022-12-15T13:44:39.770Z,52.30
2022-12-15T13:47:11.227Z,52.20
2022-12-15T13:49:49.099Z,52.30
2022-12-15T13:55:28.425Z,52.40
2022-12-15T13:58:28.290Z,52.70
2022-12-15T14:00:58.072Z,52.60
2022-12-15T14:03:27.348Z,52.70
2022-12-15T14:05:59.492Z,52.90
2022-12-15T14:08:30.205Z,53.00
2022-12-15T14:11:07.027Z,53.00
2022-12-15T14:13:38.666Z,53.10
2022-12-15T14:16:14.821Z,53.10
2022-12-15T14:18:42.674Z,53.40
2022-12-15T14:21:27.860Z,53.40
2022-12-15T14:24:36.489Z,53.70
2022-12-15T14:26:45.136Z,53.70
2022-12-15T14:29:13.095Z,53.90
2022-12-15T14:31:40.765Z,53.80
2022-12-15T14:34:37.077Z,53.60
2022-12-15T14:37:11.374Z,53.70
2022-12-15T14:39:44.132Z,53.70
2022-12-15T14:42:25.358Z,54.00
2022-12-15T14:47:40.631Z,54.20
2022-12-15T14:50:12.094Z,54.40
2022-12-15T14:52:41.976Z,54.30
2022-12-15T14:55:21.307Z,54.40
2022-12-15T14:57:52.650Z,54.40
2022-12-15T15:00:34.773Z,54.40
2022-12-15T15:03:04.592Z,45.40
2022-12-15T15:03:07.203Z,47.50
2022-12-15T15:03:07.608Z,52.40
2022-12-15T15:03:14.461Z,54.10
2022-12-15T15:05:55.821Z,54.80
2022-12-15T15:08:31.270Z,54.80
2022-12-15T15:11:25.355Z,54.90
2022-12-15T15:14:00.795Z,55.10
2022-12-15T15:16:28.923Z,55.20
2022-12-15T15:18:57.245Z,55.30
2022-12-15T15:21:28.512Z,55.40
2022-12-15T15:24:10.903Z,55.40
2022-12-15T15:26:38.797Z,55.50
2022-12-15T15:29:34.328Z,55.70
2022-12-15T15:32:19.459Z,55.90
2022-12-15T15:34:47.346Z,56.00
2022-12-15T15:37:25.266Z,56.20
2022-12-15T15:39:54.474Z,56.20
2022-12-15T15:42:26.608Z,56.30
2022-12-15T15:44:57.330Z,56.20
2022-12-15T15:47:25.630Z,56.20
2022-12-15T15:49:58.834Z,56.00
2022-12-15T15:52:28.442Z,56.00
2022-12-15T15:54:56.276Z,56.10
2022-12-15T15:57:23.367Z,56.10
2022-12-15T15:59:51.178Z,56.10
2022-12-15T16:02:18.354Z,56.00
2022-12-15T16:04:45.783Z,56.10
2022-12-15T16:07:31.012Z,56.30
2022-12-15T16:09:58.626Z,56.10
2022-12-15T16:12:41.862Z,56.00
2022-12-15T16:15:17.091Z,56.20
2022-12-15T16:17:44.771Z,56.10
2022-12-15T16:20:13.859Z,56.10
2022-12-15T16:22:44.627Z,56.10
2022-12-15T16:25:43.804Z,56.30
2022-12-15T16:28:20.513Z,56.30
2022-12-15T16:30:48.407Z,56.30
2022-12-15T16:33:16.190Z,56.20
2022-12-15T16:35:44.785Z,56.30
2022-12-15T16:38:26.504Z,56.40
2022-12-15T16:40:55.330Z,56.40
2022-12-15T16:43:26.830Z,56.30
2022-12-15T16:45:55.977Z,56.30
2022-12-15T16:48:23.504Z,56.40
2022-12-15T16:50:56.151Z,56.30
2022-12-15T16:53:26.661Z,56.40
2022-12-15T16:55:59.029Z,56.40
2022-12-15T16:58:27.488Z,56.30
2022-12-15T17:00:55.000Z,56.40
2022-12-15T17:03:25.666Z,56.50
2022-12-15T17:05:56.250Z,56.50
2022-12-15T17:08:37.339Z,56.40
2022-12-15T17:11:06.028Z,56.40
2022-12-15T17:13:45.373Z,56.50
2022-12-15T17:16:16.230Z,56.50
2022-12-15T17:18:44.609Z,56.40
2022-12-15T17:21:34.185Z,56.40
2022-12-15T17:24:06.362Z,56.40
2022-12-15T17:26:36.469Z,56.50
2022-12-15T17:29:13.092Z,56.60
2022-12-15T17:31:40.413Z,56.70
2022-12-15T17:34:31.803Z,56.70
2022-12-15T17:37:01.024Z,56.80
2022-12-15T17:39:30.044Z,56.90
2022-12-15T17:42:01.035Z,56.90
2022-12-15T17:44:34.921Z,56.90
2022-12-15T17:47:05.726Z,57.00
2022-12-15T17:49:36.642Z,57.10
2022-12-15T17:52:25.108Z,57.10
2022-12-15T17:54:52.768Z,57.00
2022-12-15T17:57:20.793Z,57.00
2022-12-15T17:59:48.206Z,56.90
2022-12-15T18:02:15.981Z,56.90
2022-12-15T18:04:43.381Z,56.80
2022-12-15T18:07:30.819Z,56.90
2022-12-15T18:09:57.954Z,56.80
2022-12-15T18:12:27.421Z,56.80
2022-12-15T18:14:55.898Z,56.90
2022-12-15T18:17:23.785Z,56.90
2022-12-15T18:19:50.894Z,56.90
2022-12-15T18:22:27.093Z,56.90
2022-12-15T18:24:54.458Z,57.00
2022-12-15T18:27:28.045Z,57.00
2022-12-15T18:29:56.685Z,57.00
2022-12-15T18:32:26.845Z,57.00
2022-12-15T18:34:54.788Z,57.10
2022-12-15T18:37:24.871Z,57.00
2022-12-15T18:39:52.276Z,57.00
2022-12-15T18:42:21.508Z,56.90
2022-12-15T18:44:51.195Z,57.00
2022-12-15T18:47:23.562Z,57.00
2022-12-15T18:49:50.772Z,56.90
2022-12-15T18:52:20.088Z,57.00
2022-12-15T18:54:48.850Z,57.10
2022-12-15T18:57:36.671Z,57.00
2022-12-15T19:00:28.345Z,57.00
2022-12-15T19:02:57.603Z,57.00
2022-12-15T19:05:29.819Z,57.20
2022-12-15T19:08:04.549Z,57.10
2022-12-15T19:10:34.628Z,57.00
2022-12-15T19:13:01.616Z,57.00
2022-12-15T19:15:29.421Z,57.10
2022-12-15T19:18:14.713Z,56.90
2022-12-15T19:21:01.304Z,56.80
2022-12-15T19:23:28.240Z,56.80
2022-12-15T19:25:56.609Z,57.10
2022-12-15T19:28:24.105Z,57.00
2022-12-15T19:30:52.484Z,56.90
2022-12-15T19:33:20.546Z,56.70
2022-12-15T19:35:51.206Z,56.70
2022-12-15T19:38:31.521Z,56.80
2022-12-15T19:41:00.546Z,56.70
2022-12-15T19:43:29.440Z,56.60
2022-12-15T19:45:57.798Z,56.60
2022-12-15T19:48:24.983Z,56.70
2022-12-15T19:50:54.688Z,56.70
2022-12-15T19:53:29.438Z,56.90
2022-12-15T19:56:00.086Z,56.90
2022-12-15T19:58:28.899Z,57.00
2022-12-15T20:01:02.312Z,57.00
2022-12-15T20:03:30.201Z,57.00
2022-12-15T20:05:59.180Z,57.10
2022-12-15T20:08:29.348Z,57.10
2022-12-15T20:10:56.910Z,57.20
2022-12-15T20:13:26.476Z,57.30
2022-12-15T20:15:54.736Z,57.30
2022-12-15T20:18:22.072Z,57.30
2022-12-15T20:20:49.696Z,57.30
2022-12-15T20:23:26.681Z,57.20
2022-12-15T20:25:55.986Z,57.10
2022-12-15T20:28:26.536Z,57.30
2022-12-15T20:30:54.121Z,57.40
2022-12-15T20:33:21.251Z,57.60
2022-12-15T20:35:49.702Z,57.60
2022-12-15T20:38:31.769Z,57.70
2022-12-15T20:41:00.438Z,57.80
2022-12-15T20:43:31.688Z,57.90
2022-12-15T20:46:07.181Z,58.00
2022-12-15T20:48:36.721Z,57.90
2022-12-15T20:51:09.190Z,57.80
2022-12-15T20:53:38.176Z,57.90
2022-12-15T20:56:06.229Z,58.10
2022-12-15T20:58:40.861Z,58.10
2022-12-15T21:01:28.091Z,58.20
2022-12-15T21:03:57.957Z,58.20
2022-12-15T21:06:26.173Z,58.20
2022-12-15T21:08:53.380Z,58.00
2022-12-15T21:11:31.591Z,58.10
2022-12-15T21:14:04.627Z,58.20
2022-12-15T21:16:32.867Z,58.30
2022-12-15T21:19:19.794Z,58.30
2022-12-15T21:21:51.995Z,58.30
2022-12-15T21:24:25.537Z,58.40
2022-12-15T21:26:53.613Z,58.40
2022-12-15T21:29:23.691Z,58.50
2022-12-15T21:31:50.856Z,58.50
2022-12-15T21:34:17.967Z,58.60
2022-12-15T21:36:49.392Z,58.70
2022-12-15T21:39:29.388Z,58.80
2022-12-15T21:41:59.420Z,58.70
2022-12-15T21:44:26.551Z,58.80
2022-12-15T21:46:53.436Z,58.90
2022-12-15T21:49:22.198Z,59.00
2022-12-15T21:51:56.691Z,59.20
2022-12-15T21:54:31.575Z,59.20
2022-12-15T21:57:02.959Z,59.10
2022-12-15T21:59:42.903Z,59.20
2022-12-15T22:02:40.693Z,59.30
2022-12-15T22:05:19.271Z,59.50
2022-12-15T22:07:47.099Z,59.40
2022-12-15T22:10:15.047Z,59.50
2022-12-15T22:12:45.423Z,59.50
2022-12-15T22:15:19.552Z,59.60
2022-12-15T22:17:47.099Z,59.70
2022-12-15T22:20:23.796Z,59.70
2022-12-15T22:22:50.872Z,59.70
2022-12-15T22:25:25.880Z,59.80
2022-12-15T22:27:54.783Z,60.00
2022-12-15T22:30:27.027Z,60.00
2022-12-15T22:32:54.350Z,60.00
2022-12-15T22:35:27.924Z,60.00
2022-12-15T22:37:56.091Z,60.00
2022-12-15T22:40:24.222Z,60.00
2022-12-15T22:42:57.119Z,60.10
2022-12-15T22:45:25.184Z,60.20
2022-12-15T22:47:53.525Z,60.20
2022-12-15T22:50:26.880Z,60.20
2022-12-15T22:52:55.067Z,60.40
2022-12-15T22:55:24.386Z,60.50
2022-12-15T22:58:01.348Z,60.50
2022-12-15T23:00:28.611Z,60.30
2022-12-15T23:02:59.041Z,60.00
2022-12-15T23:05:26.147Z,60.20
2022-12-15T23:07:53.731Z,60.40
2022-12-15T23:10:40.757Z,60.50
2022-12-15T23:13:07.769Z,60.60
2022-12-15T23:15:54.724Z,60.80
2022-12-15T23:18:22.074Z,60.70
2022-12-15T23:20:48.991Z,61.00
2022-12-15T23:23:15.960Z,60.80
2022-12-15T23:25:43.782Z,60.90
2022-12-15T23:28:10.961Z,61.20
2022-12-15T23:30:38.713Z,60.80
2022-12-15T23:33:05.734Z,60.90
2022-12-15T23:35:32.724Z,61.00
2022-12-15T23:37:59.950Z,61.00
2022-12-15T23:40:26.871Z,61.10
2022-12-15T23:42:53.961Z,61.10
2022-12-15T23:45:22.602Z,61.00
2022-12-15T23:47:49.604Z,61.00
2022-12-15T23:50:16.697Z,60.90
2022-12-15T23:52:43.703Z,60.80
2022-12-15T23:55:11.085Z,60.80
2022-12-15T23:57:39.443Z,60.80
